Time;durP1;ratioP1;P1;durP2;ratioP2;P2;SDS_P1;SDS_P2;PMS_P1;PMS_P2;Temp;Humidity;BMP_temperature;BMP_pressure;BME280_temperature;BME280_humidity;BME280_pressure;Samples;Min_cycle;Max_cycle;Signal;HPM_P1;HPM_P2
2023/10/25 00:02:28;;;;;;;27.95;16.42;;;;;;;11.43;100.00;99693.09;7398526;19;20078;-67
2023/10/25 00:04:57;;;;;;;25.85;16.23;;;;;;;11.41;100.00;99683.50;7396453;19;20548;-67
2023/10/25 00:07:25;;;;;;;27.42;16.02;;;;;;;11.39;100.00;99692.34;7397958;19;20024;-67
2023/10/25 00:09:56;;;;;;;28.67;16.48;;;;;;;11.36;100.00;99692.47;7396645;19;20019;-68
2023/10/25 00:12:25;;;;;;;27.55;16.92;;;;;;;11.34;100.00;99689.06;7398870;19;20070;-67
2023/10/25 00:14:55;;;;;;;28.05;16.05;;;;;;;11.30;100.00;99684.84;7396691;19;20097;-67
2023/10/25 00:17:24;;;;;;;27.45;15.43;;;;;;;11.28;100.00;99695.41;7396290;19;20375;-67
2023/10/25 00:19:52;;;;;;;27.67;16.02;;;;;;;11.25;100.00;99683.28;7398101;19;20023;-68
2023/10/25 00:22:21;;;;;;;26.88;16.13;;;;;;;11.23;100.00;99693.00;7396050;19;20006;-68
2023/10/25 00:24:49;;;;;;;23.65;15.80;;;;;;;11.21;100.00;99692.19;7396410;19;20027;-67
2023/10/25 00:27:20;;;;;;;25.85;16.38;;;;;;;11.19;100.00;99695.81;7397108;19;20082;-67
2023/10/25 00:29:49;;;;;;;28.05;16.52;;;;;;;11.16;100.00;99686.28;7398694;19;20359;-68
2023/10/25 00:32:17;;;;;;;24.55;15.40;;;;;;;11.15;100.00;99683.72;7398169;19;20028;-68
2023/10/25 00:34:45;;;;;;;25.27;16.70;;;;;;;11.10;100.00;99683.91;7397762;19;20498;-69
2023/10/25 00:37:14;;;;;;;27.55;16.25;;;;;;;11.11;100.00;99688.25;7397036;19;20014;-68
2023/10/25 00:39:43;;;;;;;23.88;15.45;;;;;;;11.10;100.00;99685.69;7397901;19;20088;-68
2023/10/25 00:42:11;;;;;;;27.02;16.33;;;;;;;11.07;100.00;99677.03;7395522;19;20082;-68
2023/10/25 00:44:42;;;;;;;28.83;17.02;;;;;;;11.06;100.00;99677.09;7396588;19;20010;-68
2023/10/25 00:47:11;;;;;;;25.33;16.23;;;;;;;11.04;100.00;99678.91;7396604;19;20014;-68
2023/10/25 00:49:47;;;;;;;29.77;17.70;;;;;;;11.00;100.00;99679.97;7397182;19;20572;-68
2023/10/25 00:52:15;;;;;;;27.25;16.23;;;;;;;10.97;100.00;99680.94;7397010;19;20021;-68
2023/10/25 00:54:45;;;;;;;27.63;17.05;;;;;;;10.95;100.00;99672.25;7395468;19;20074;-68
2023/10/25 00:57:15;;;;;;;27.75;17.05;;;;;;;10.93;100.00;99676.69;7396293;19;20014;-68
2023/10/25 00:59:46;;;;;;;27.40;17.17;;;;;;;10.91;100.00;99681.19;7394991;19;20493;-68
2023/10/25 01:02:15;;;;;;;26.38;16.58;;;;;;;10.90;100.00;99674.22;7396761;19;20513;-69
2023/10/25 01:04:43;;;;;;;28.73;17.30;;;;;;;10.90;100.00;99674.22;7396674;19;20023;-69
2023/10/25 01:07:12;;;;;;;29.27;17.75;;;;;;;10.87;100.00;99675.19;7394633;19;20018;-69
2023/10/25 01:09:40;;;;;;;30.70;17.75;;;;;;;10.87;100.00;99677.81;7396903;19;20062;-69
2023/10/25 01:12:10;;;;;;;27.02;18.23;;;;;;;10.86;100.00;99672.63;7396798;19;20083;-69
2023/10/25 01:14:39;;;;;;;28.92;17.95;;;;;;;10.84;100.00;99675.34;7396267;19;20019;-69
2023/10/25 01:17:10;;;;;;;27.45;17.88;;;;;;;10.86;100.00;99681.34;7394833;19;20066;-68
2023/10/25 01:19:39;;;;;;;29.00;18.92;;;;;;;10.85;100.00;99679.63;7396263;19;20485;-68
2023/10/25 01:22:07;;;;;;;29.20;17.80;;;;;;;10.85;100.00;99669.16;7396572;19;20103;-69
2023/10/25 01:24:38;;;;;;;32.50;20.45;;;;;;;10.84;100.00;99679.72;7396430;19;20070;-68
2023/10/25 01:27:07;;;;;;;28.08;19.20;;;;;;;10.83;100.00;99676.25;7396246;19;20066;-68
2023/10/25 01:29:35;;;;;;;31.15;19.35;;;;;;;10.84;100.00;99677.09;7394471;19;20178;-69
2023/10/25 01:32:26;;;;;;;29.05;18.63;;;;;;;10.84;100.00;99674.47;7396181;19;20014;-69
2023/10/25 01:34:54;;;;;;;28.23;18.02;;;;;;;10.82;100.00;99679.78;7396088;19;20019;-70
2023/10/25 01:37:23;;;;;;;27.52;19.23;;;;;;;10.81;100.00;99688.56;7395280;19;20031;-69
2023/10/25 01:39:54;;;;;;;26.90;17.85;;;;;;;10.82;100.00;99676.31;7395563;19;20010;-68
2023/10/25 01:42:22;;;;;;;32.22;20.38;;;;;;;10.81;100.00;99685.09;7395498;19;20537;-69
2023/10/25 01:44:57;;;;;;;29.23;20.15;;;;;;;10.79;100.00;99693.00;7395555;19;20383;-68
2023/10/25 01:47:32;;;;;;;29.83;20.40;;;;;;;10.80;100.00;99699.13;7394559;19;20026;-69
2023/10/25 01:50:00;;;;;;;32.33;21.90;;;;;;;10.79;100.00;99697.41;7395778;19;20023;-69
2023/10/25 01:52:28;;;;;;;36.25;24.60;;;;;;;10.74;100.00;99708.06;7396791;19;20368;-68
2023/10/25 01:55:00;;;;;;;35.03;24.92;;;;;;;10.74;100.00;99700.19;7396550;19;20018;-69
2023/10/25 01:57:28;;;;;;;36.70;23.83;;;;;;;10.75;100.00;99694.03;7395171;19;20477;-69
2023/10/25 01:59:57;;;;;;;33.08;21.88;;;;;;;10.76;100.00;99693.13;7394839;19;20078;-69
2023/10/25 02:02:25;;;;;;;33.25;22.67;;;;;;;10.76;100.00;99706.25;7395291;19;20032;-70
2023/10/25 02:05:01;;;;;;;31.00;24.50;;;;;;;10.75;100.00;99708.03;7393543;19;20073;-69
2023/10/25 02:07:29;;;;;;;31.58;23.63;;;;;;;10.76;100.00;99719.38;7394698;19;20062;-69
2023/10/25 02:10:00;;;;;;;31.45;22.45;;;;;;;10.75;100.00;99708.03;7393547;19;20364;-69
2023/10/25 02:12:29;;;;;;;32.42;24.15;;;;;;;10.74;100.00;99702.81;7395441;19;20078;-69
2023/10/25 02:14:57;;;;;;;30.65;22.55;;;;;;;10.73;100.00;99706.38;7394527;19;20014;-69
2023/10/25 02:17:26;;;;;;;30.75;23.08;;;;;;;10.72;100.00;99713.38;7394088;19;20010;-69
2023/10/25 02:19:54;;;;;;;28.38;23.00;;;;;;;10.71;100.00;99716.06;7394713;19;20090;-69
2023/10/25 02:22:23;;;;;;;29.65;22.48;;;;;;;10.71;100.00;99716.06;7394478;19;20432;-69
2023/10/25 02:24:53;;;;;;;28.50;22.30;;;;;;;10.68;100.00;99716.19;7394047;19;20023;-69
2023/10/25 02:27:24;;;;;;;26.30;21.30;;;;;;;10.65;100.00;99724.19;7399123;19;20021;-69
2023/10/25 02:29:52;;;;;;;28.38;19.77;;;;;;;10.63;100.00;99715.50;7399424;19;20023;-69
2023/10/25 02:32:20;;;;;;;23.35;19.45;;;;;;;10.58;100.00;99719.16;7401672;19;20414;-69
2023/10/25 02:34:49;;;;;;;20.35;17.25;;;;;;;10.54;100.00;99724.56;7402067;19;20027;-69
2023/10/25 02:37:18;;;;;;;21.42;17.90;;;;;;;10.49;100.00;99731.75;7400943;19;20010;-69
2023/10/25 02:39:46;;;;;;;23.90;18.67;;;;;;;10.43;100.00;99728.47;7401383;19;20343;-68
2023/10/25 02:42:14;;;;;;;24.50;19.00;;;;;;;10.40;100.00;99723.34;7401390;19;20010;-68
2023/10/25 02:44:46;;;;;;;23.80;20.02;;;;;;;10.37;100.00;99733.94;7400974;19;20090;-68
2023/10/25 02:47:14;;;;;;;28.73;18.90;;;;;;;10.34;100.00;99734.03;7399130;19;20011;-67
2023/10/25 02:49:42;;;;;;;28.55;20.23;;;;;;;10.34;100.00;99735.81;7398645;19;20094;-67
2023/10/25 02:52:11;;;;;;;26.48;19.98;;;;;;;10.31;100.00;99730.66;7401448;19;20023;-67
2023/10/25 02:54:40;;;;;;;25.00;19.23;;;;;;;10.28;100.00;99727.22;7398560;19;20014;-68
2023/10/25 02:57:08;;;;;;;26.67;20.35;;;;;;;10.27;100.00;99738.66;7400288;19;20017;-67
2023/10/25 02:59:37;;;;;;;28.67;20.00;;;;;;;10.25;100.00;99739.63;7398508;19;20379;-67
2023/10/25 03:02:08;;;;;;;28.17;18.98;;;;;;;10.22;100.00;99744.94;7398374;19;20023;-67
2023/10/25 03:04:36;;;;;;;26.33;18.08;;;;;;;10.19;100.00;99751.16;7400535;19;20477;-68
2023/10/25 03:07:05;;;;;;;27.10;18.83;;;;;;;10.15;100.00;99746.94;7397994;19;20092;-67
2023/10/25 03:09:34;;;;;;;25.15;17.27;;;;;;;10.11;100.00;99759.31;7398211;19;20011;-68
2023/10/25 03:12:02;;;;;;;24.58;18.77;;;;;;;10.08;100.00;99758.56;7398017;19;20015;-69
2023/10/25 03:14:31;;;;;;;23.42;17.45;;;;;;;10.05;100.00;99758.69;7398579;19;20372;-68
2023/10/25 03:16:59;;;;;;;25.10;18.40;;;;;;;10.02;100.00;99766.63;7399794;19;20390;-69
2023/10/25 03:19:30;;;;;;;24.00;17.02;;;;;;;9.97;100.00;99760.69;7400225;19;20359;-67
2023/10/25 03:21:59;;;;;;;29.08;20.00;;;;;;;9.92;100.00;99766.97;7401470;19;20086;-68
2023/10/25 03:24:28;;;;;;;27.67;19.20;;;;;;;9.90;100.00;99763.53;7400195;19;20368;-67
2023/10/25 03:26:56;;;;;;;30.10;19.38;;;;;;;9.87;100.00;99766.25;7399492;19;20481;-68
2023/10/25 03:29:25;;;;;;;26.15;18.83;;;;;;;9.84;100.00;99768.13;7398140;19;20380;-68
2023/10/25 03:31:57;;;;;;;27.13;19.33;;;;;;;9.83;100.00;99771.66;7400128;19;20018;-67
2023/10/25 03:34:26;;;;;;;27.13;18.40;;;;;;;9.81;100.00;99774.34;7399619;19;20426;-68
2023/10/25 03:36:57;;;;;;;26.15;17.90;;;;;;;9.78;100.00;99771.81;7396283;19;20529;-69
2023/10/25 03:39:26;;;;;;;24.10;18.05;;;;;;;9.74;100.00;99773.69;7397421;19;20014;-67
2023/10/25 03:41:54;;;;;;;31.40;19.98;;;;;;;9.73;100.00;99773.72;7397378;19;20007;-68
2023/10/25 03:44:23;;;;;;;26.95;18.65;;;;;;;9.70;100.00;99773.84;7396795;19;20010;-68
2023/10/25 03:46:53;;;;;;;26.73;18.92;;;;;;;9.68;100.00;99767.78;7397405;19;20066;-68
2023/10/25 03:49:21;;;;;;;27.00;18.42;;;;;;;9.66;100.00;99770.47;7397975;19;20027;-68
2023/10/25 03:51:50;;;;;;;28.08;18.33;;;;;;;9.63;100.00;99762.72;7397197;19;20039;-68
2023/10/25 03:54:22;;;;;;;26.23;18.67;;;;;;;9.60;100.00;99758.44;7399152;19;20151;-68
2023/10/25 03:56:50;;;;;;;25.95;18.10;;;;;;;9.57;100.00;99755.91;7398576;19;20020;-69
2023/10/25 03:59:19;;;;;;;35.28;25.42;;;;;;;9.56;100.00;99758.59;7398605;19;20010;-67
2023/10/25 04:01:47;;;;;;;28.55;19.70;;;;;;;9.54;100.00;99766.50;7399065;19;20031;-67
2023/10/25 04:04:15;;;;;;;27.02;18.48;;;;;;;9.51;100.00;99748.25;7396131;19;20062;-67
2023/10/25 04:06:44;;;;;;;29.50;19.40;;;;;;;9.50;100.00;99757.00;7398195;19;20086;-67
2023/10/25 04:09:12;;;;;;;27.52;18.17;;;;;;;9.47;100.00;99757.13;7397529;19;20021;-67
2023/10/25 04:11:43;;;;;;;31.42;20.13;;;;;;;9.43;100.00;99758.16;7396304;19;20073;-67
2023/10/25 04:14:12;;;;;;;29.60;19.40;;;;;;;9.38;100.00;99753.06;7399120;19;20018;-67
2023/10/25 04:16:46;;;;;;;26.63;18.38;;;;;;;9.36;100.00;99754.00;7398109;19;20489;-68
2023/10/25 04:19:15;;;;;;;28.85;18.63;;;;;;;9.32;100.00;99753.25;7398189;19;20015;-68
2023/10/25 04:21:43;;;;;;;26.23;19.20;;;;;;;9.28;100.00;99747.25;7398004;19;20014;-67
2023/10/25 04:24:12;;;;;;;29.77;19.45;;;;;;;9.26;100.00;99749.06;7398248;19;20081;-68
2023/10/25 04:26:40;;;;;;;29.02;18.75;;;;;;;9.23;100.00;99746.53;7397959;19;20013;-68
2023/10/25 04:29:11;;;;;;;29.98;19.67;;;;;;;9.23;100.00;99749.16;7397084;19;20082;-68
2023/10/25 04:31:40;;;;;;;26.15;18.38;;;;;;;9.23;100.00;99745.69;7398094;19;20425;-67
2023/10/25 04:34:08;;;;;;;29.67;20.27;;;;;;;9.22;100.00;99747.44;7397934;19;20082;-67
2023/10/25 04:36:38;;;;;;;28.00;18.90;;;;;;;9.21;100.00;99745.75;7396976;19;20022;-67
2023/10/25 04:39:08;;;;;;;36.25;22.60;;;;;;;9.20;100.00;99746.66;7397373;19;20006;-67
2023/10/25 04:41:36;;;;;;;33.80;24.45;;;;;;;9.19;100.00;99746.72;7397507;19;20017;-67
2023/10/25 04:44:05;;;;;;;28.42;20.25;;;;;;;9.18;100.00;99738.00;7397462;19;20014;-68
2023/10/25 04:46:36;;;;;;;31.52;20.80;;;;;;;9.18;100.00;99739.75;7394768;19;20507;-68
2023/10/25 04:49:05;;;;;;;31.75;20.35;;;;;;;9.17;100.00;99743.28;7394428;19;20406;-68
2023/10/25 04:51:33;;;;;;;30.35;20.33;;;;;;;9.16;100.00;99738.94;7396689;19;20362;-67
2023/10/25 04:54:02;;;;;;;29.25;19.65;;;;;;;9.13;100.00;99748.59;7394946;19;20078;-67
2023/10/25 04:56:30;;;;;;;28.67;19.40;;;;;;;9.11;100.00;99742.56;7397418;19;20070;-68
2023/10/25 04:58:59;;;;;;;29.15;19.42;;;;;;;9.10;100.00;99737.41;7396684;19;20541;-68
2023/10/25 05:01:27;;;;;;;27.90;18.95;;;;;;;9.07;100.00;99751.44;7394965;19;20086;-68
2023/10/25 05:03:58;;;;;;;30.33;18.65;;;;;;;9.04;100.00;99745.44;7394329;19;20011;-67
2023/10/25 05:06:27;;;;;;;28.13;17.58;;;;;;;9.02;100.00;99744.63;7396297;19;20078;-67
2023/10/25 05:08:56;;;;;;;27.23;18.95;;;;;;;8.99;100.00;99747.34;7393520;19;20435;-66
2023/10/25 05:11:31;;;;;;;25.10;17.98;;;;;;;8.94;100.00;99748.31;7395976;19;20019;-67
2023/10/25 05:14:00;;;;;;;27.60;18.35;;;;;;;8.91;100.00;99743.19;7393630;19;20506;-68
2023/10/25 05:16:30;;;;;;;26.90;18.90;;;;;;;8.88;100.00;99747.66;7394438;19;20027;-67
2023/10/25 05:19:01;;;;;;;27.50;18.73;;;;;;;8.85;100.00;99746.00;7394138;19;20089;-68
2023/10/25 05:21:32;;;;;;;28.50;18.63;;;;;;;8.81;100.00;99744.38;7395556;19;20033;-67
2023/10/25 05:24:02;;;;;;;21.38;16.42;;;;;;;8.78;100.00;99740.09;7396074;19;20031;-67
2023/10/25 05:26:31;;;;;;;29.40;19.02;;;;;;;8.76;100.00;99736.66;7394663;19;20015;-68
2023/10/25 05:29:06;;;;;;;25.13;16.65;;;;;;;8.73;100.00;99734.16;7396081;19;20019;-67
2023/10/25 05:31:37;;;;;;;27.08;18.52;;;;;;;8.72;100.00;99736.78;7395903;19;20006;-68
2023/10/25 05:34:09;;;;;;;24.40;18.65;;;;;;;8.68;100.00;99741.28;7396586;19;20078;-68
2023/10/25 05:36:38;;;;;;;27.30;18.80;;;;;;;8.66;100.00;99745.69;7396100;19;20013;-68
2023/10/25 05:39:08;;;;;;;27.88;18.00;;;;;;;8.63;100.00;99753.63;7393936;19;20036;-67
2023/10/25 05:41:41;;;;;;;26.38;18.23;;;;;;;8.61;100.00;99753.66;7395454;19;20023;-67
2023/10/25 05:44:16;;;;;;;31.70;18.40;;;;;;;8.58;100.00;99748.53;7394974;19;20070;-67
2023/10/25 05:46:45;;;;;;;27.80;19.77;;;;;;;8.56;100.00;99747.72;7393360;19;20027;-68
2023/10/25 05:49:17;;;;;;;29.40;18.85;;;;;;;8.54;100.00;99749.50;7394433;19;20533;-68
2023/10/25 05:51:46;;;;;;;30.23;20.23;;;;;;;8.52;100.00;99750.47;7394166;19;20015;-68
2023/10/25 05:54:16;;;;;;;28.58;20.38;;;;;;;8.50;100.00;99750.50;7395492;19;20031;-67
2023/10/25 05:56:45;;;;;;;27.33;19.45;;;;;;;8.49;100.00;99746.19;7394983;19;20015;-68
2023/10/25 05:59:14;;;;;;;32.78;19.30;;;;;;;8.47;100.00;99748.84;7394757;19;20031;-67
2023/10/25 06:01:50;;;;;;;33.22;19.85;;;;;;;8.47;100.00;99761.06;7392647;19;20015;-67
2023/10/25 06:04:23;;;;;;;30.10;19.08;;;;;;;8.45;100.00;99760.22;7394308;19;20414;-68
2023/10/25 06:06:52;;;;;;;29.98;20.30;;;;;;;8.43;100.00;99757.66;7393433;19;20014;-67
2023/10/25 06:09:21;;;;;;;27.98;19.63;;;;;;;8.42;100.00;99761.16;7393763;19;20087;-68
2023/10/25 06:11:50;;;;;;;28.83;19.08;;;;;;;8.41;100.00;99763.81;7393957;19;20450;-67
2023/10/25 06:14:19;;;;;;;28.80;19.90;;;;;;;8.39;100.00;99769.09;7395095;19;20014;-68
2023/10/25 06:16:48;;;;;;;30.17;18.77;;;;;;;8.40;100.00;99769.94;7392014;19;20510;-68
2023/10/25 06:19:17;;;;;;;34.85;20.00;;;;;;;8.39;100.00;99770.84;7394663;19;20382;-68
2023/10/25 06:21:48;;;;;;;31.27;20.20;;;;;;;8.40;100.00;99769.94;7393769;19;20489;-68
2023/10/25 06:24:16;;;;;;;30.98;19.85;;;;;;;8.40;100.00;99762.94;7392700;19;20023;-68
2023/10/25 06:26:45;;;;;;;33.85;20.73;;;;;;;8.41;100.00;99767.28;7391423;19;20359;-68
2023/10/25 06:29:13;;;;;;;32.65;21.15;;;;;;;8.40;100.00;99762.94;7391838;19;20011;-68
2023/10/25 06:31:42;;;;;;;31.83;19.88;;;;;;;8.41;100.00;99762.06;7391261;19;20492;-68
2023/10/25 06:34:17;;;;;;;30.48;20.63;;;;;;;8.42;100.00;99752.47;7393488;19;20078;-67
2023/10/25 06:36:50;;;;;;;34.25;21.05;;;;;;;8.41;100.00;99764.66;7391275;19;20014;-68
2023/10/25 06:39:19;;;;;;;32.05;20.33;;;;;;;8.42;100.00;99757.69;7391211;19;20010;-68
2023/10/25 06:41:48;;;;;;;29.27;19.73;;;;;;;8.43;100.00;99762.88;7393056;19;20007;-68
2023/10/25 06:44:18;;;;;;;28.83;19.48;;;;;;;8.44;100.00;99764.59;7394346;19;20015;-68
2023/10/25 06:46:46;;;;;;;30.52;19.67;;;;;;;8.46;100.00;99767.19;7391801;19;20018;-69
2023/10/25 06:49:15;;;;;;;31.80;20.67;;;;;;;8.47;100.00;99764.53;7390769;19;20023;-67
2023/10/25 06:51:45;;;;;;;33.58;19.67;;;;;;;8.49;100.00;99767.09;7393376;19;20024;-67
2023/10/25 06:54:17;;;;;;;33.65;19.05;;;;;;;8.50;100.00;99762.75;7390851;19;20417;-66
2023/10/25 06:56:46;;;;;;;30.38;20.15;;;;;;;8.52;100.00;99763.53;7392036;19;20025;-68
2023/10/25 06:59:15;;;;;;;31.45;19.92;;;;;;;8.54;100.00;99769.59;7393577;19;20027;-67
2023/10/25 07:01:47;;;;;;;31.85;19.08;;;;;;;8.55;100.00;99781.75;7392920;19;20014;-65
2023/10/25 07:04:16;;;;;;;28.17;19.45;;;;;;;8.55;100.00;99781.75;7390380;19;20537;-65
2023/10/25 07:06:48;;;;;;;27.10;17.35;;;;;;;8.54;100.00;99778.28;7390372;19;20011;-65
2023/10/25 07:09:19;;;;;;;30.20;18.77;;;;;;;8.54;100.00;99788.72;7393735;19;20024;-68
2023/10/25 07:11:48;;;;;;;29.73;19.38;;;;;;;8.54;100.00;99782.66;7393758;19;20078;-70
2023/10/25 07:14:17;;;;;;;29.98;18.75;;;;;;;8.55;100.00;99787.00;7401939;19;20018;-67
2023/10/25 07:16:45;;;;;;;29.60;19.63;;;;;;;8.54;100.00;99780.88;7401077;19;20015;-67
2023/10/25 07:19:14;;;;;;;29.58;18.52;;;;;;;8.55;100.00;99782.59;7400623;19;20015;-66
2023/10/25 07:21:42;;;;;;;32.45;20.85;;;;;;;8.55;100.00;99774.75;7399145;19;20024;-66
2023/10/25 07:24:11;;;;;;;32.05;20.15;;;;;;;8.59;100.00;99779.03;7399613;19;20473;-66
2023/10/25 07:26:43;;;;;;;31.73;19.60;;;;;;;8.63;100.00;99777.16;7398961;19;20364;-67
2023/10/25 07:29:11;;;;;;;32.38;19.35;;;;;;;8.66;100.00;99778.81;7397693;19;20010;-66
2023/10/25 07:31:39;;;;;;;32.33;19.42;;;;;;;8.69;100.00;99771.75;7399832;19;20081;-66
2023/10/25 07:34:08;;;;;;;29.75;19.63;;;;;;;8.73;100.00;99788.19;7399023;19;20015;-65
2023/10/25 07:36:36;;;;;;;34.88;20.75;;;;;;;8.75;100.00;99778.56;7398591;19;20019;-65
2023/10/25 07:39:05;;;;;;;36.65;20.65;;;;;;;8.78;100.00;99781.94;7396263;19;20433;-67
2023/10/25 07:41:33;;;;;;;33.03;20.75;;;;;;;8.83;100.00;99773.94;7399086;19;20066;-66
2023/10/25 07:44:04;;;;;;;33.42;18.92;;;;;;;8.86;100.00;99778.22;7398241;19;20074;-65
2023/10/25 07:46:33;;;;;;;34.53;19.30;;;;;;;8.88;100.00;99766.81;7396273;19;20082;-67
2023/10/25 07:49:01;;;;;;;30.77;19.10;;;;;;;8.90;100.00;99772.88;7395747;19;20525;-65
2023/10/25 07:51:30;;;;;;;30.77;20.23;;;;;;;8.93;100.00;99767.56;7395825;19;20023;-64
2023/10/25 07:53:58;;;;;;;30.33;19.27;;;;;;;8.95;100.00;99760.50;7395898;19;20010;-65
2023/10/25 07:56:27;;;;;;;34.03;20.85;;;;;;;8.99;100.00;99760.41;7396300;19;20031;-65
2023/10/25 07:58:55;;;;;;;30.05;18.65;;;;;;;9.02;100.00;99757.69;7396134;19;20035;-65
2023/10/25 08:01:26;;;;;;;31.23;19.20;;;;;;;9.06;100.00;99764.53;7395174;19;20020;-65
2023/10/25 08:03:55;;;;;;;29.38;18.40;;;;;;;9.10;100.00;99763.56;7395946;19;20439;-64
2023/10/25 08:06:30;;;;;;;28.50;17.33;;;;;;;9.13;100.00;99766.91;7398257;19;20082;-64
2023/10/25 08:08:59;;;;;;;29.40;17.70;;;;;;;9.17;100.00;99764.22;7398721;19;20489;-65
2023/10/25 08:11:28;;;;;;;29.48;18.15;;;;;;;9.23;100.00;99761.41;7396045;19;20485;-65
2023/10/25 08:13:56;;;;;;;31.88;18.98;;;;;;;9.26;100.00;99764.78;7398427;19;20018;-66
2023/10/25 08:16:27;;;;;;;27.98;18.48;;;;;;;9.31;100.00;99762.00;7396149;19;20035;-65
2023/10/25 08:18:56;;;;;;;29.52;18.27;;;;;;;9.35;100.00;99760.13;7394787;19;20027;-66
2023/10/25 08:21:24;;;;;;;27.52;18.52;;;;;;;9.40;100.00;99755.59;7395974;19;20010;-65
2023/10/25 08:23:55;;;;;;;28.83;17.63;;;;;;;9.44;100.00;99749.38;7392695;19;20027;-65
2023/10/25 08:26:25;;;;;;;28.33;17.27;;;;;;;9.48;100.00;99753.59;7398349;19;20086;-65
2023/10/25 08:28:54;;;;;;;26.60;18.83;;;;;;;9.54;100.00;99763.00;7395739;19;20014;-66
2023/10/25 08:31:23;;;;;;;27.67;17.25;;;;;;;9.58;100.00;99757.63;7395728;19;20010;-64
2023/10/25 08:33:54;;;;;;;27.58;18.33;;;;;;;9.64;100.00;99753.94;7396904;19;20510;-64
2023/10/25 08:36:23;;;;;;;26.85;17.40;;;;;;;9.70;100.00;99755.50;7395742;19;20006;-64
2023/10/25 08:38:58;;;;;;;26.80;17.30;;;;;;;9.76;100.00;99757.91;7394714;19;20335;-65
2023/10/25 08:41:28;;;;;;;29.15;16.63;;;;;;;9.82;100.00;99764.69;7395271;19;20027;-65
2023/10/25 08:43:56;;;;;;;27.27;19.63;;;;;;;9.87;100.00;99757.53;7397262;19;20077;-65
2023/10/25 08:46:27;;;;;;;31.58;18.95;;;;;;;9.93;100.00;99762.56;7394937;19;20073;-65
2023/10/25 08:48:58;;;;;;;27.70;17.27;;;;;;;10.00;100.00;99760.59;7395854;19;20084;-65
2023/10/25 08:51:27;;;;;;;25.23;17.15;;;;;;;10.05;100.00;99754.28;7394999;19;20059;-65
2023/10/25 08:54:01;;;;;;;26.90;17.45;;;;;;;10.11;100.00;99755.84;7396760;19;20011;-65
2023/10/25 08:56:29;;;;;;;23.17;15.82;;;;;;;10.16;100.00;99760.91;7395500;19;20031;-65
2023/10/25 08:59:00;;;;;;;27.75;17.63;;;;;;;10.21;100.00;99757.22;7395112;19;20073;-65
2023/10/25 09:01:30;;;;;;;29.38;18.65;;;;;;;10.26;100.00;99763.16;7395391;19;20021;-66
2023/10/25 09:04:08;;;;;;;27.98;17.63;;;;;;;10.33;100.00;99758.53;7397518;19;20072;-66
2023/10/25 09:06:36;;;;;;;27.33;17.30;;;;;;;10.39;100.00;99762.75;7396788;19;20013;-66
2023/10/25 09:09:08;;;;;;;29.75;16.70;;;;;;;10.43;100.00;99764.31;7396576;19;20039;-66
2023/10/25 09:11:42;;;;;;;27.80;18.77;;;;;;;10.47;100.00;99757.22;7394195;19;20016;-66
2023/10/25 09:14:10;;;;;;;26.10;17.58;;;;;;;10.49;100.00;99760.59;7394919;19;20365;-66
2023/10/25 09:16:41;;;;;;;25.85;17.77;;;;;;;10.53;100.00;99755.19;7393976;19;20041;-67
2023/10/25 09:19:12;;;;;;;28.13;16.42;;;;;;;10.55;100.00;99753.38;7395697;19;20014;-66
2023/10/25 09:21:41;;;;;;;22.85;15.98;;;;;;;10.56;100.00;99744.63;7393466;19;20485;-66
2023/10/25 09:24:10;;;;;;;25.88;17.55;;;;;;;10.56;100.00;99755.09;7395648;19;20031;-65
2023/10/25 09:26:41;;;;;;;24.38;17.15;;;;;;;10.57;100.00;99751.53;7395993;19;20089;-66
2023/10/25 09:29:12;;;;;;;22.23;16.52;;;;;;;10.58;100.00;99755.03;7394214;19;20016;-65
2023/10/25 09:31:41;;;;;;;23.80;16.05;;;;;;;10.58;100.00;99753.25;7394868;19;20018;-65
2023/10/25 09:34:12;;;;;;;21.60;15.00;;;;;;;10.59;100.00;99754.97;7395643;19;20027;-65
2023/10/25 09:36:40;;;;;;;24.27;15.43;;;;;;;10.60;100.00;99755.81;7395065;19;20026;-66
2023/10/25 09:39:09;;;;;;;20.17;13.85;;;;;;;10.62;100.00;99756.63;7394891;19;20019;-68
2023/10/25 09:41:50;;;;;;;21.33;12.98;;;;;;;10.65;100.00;99764.38;7396213;19;20018;-65
2023/10/25 09:44:22;;;;;;;19.98;14.60;;;;;;;10.66;100.00;99752.97;7396047;19;20033;-66
2023/10/25 09:46:52;;;;;;;16.55;13.18;;;;;;;10.71;100.00;99755.44;7393831;19;20023;-63
2023/10/25 09:49:30;;;;;;;19.70;12.88;;;;;;;10.74;100.00;99753.53;7395663;19;20033;-66
2023/10/25 09:52:05;;;;;;;18.77;12.48;;;;;;;10.79;100.00;99755.97;7394003;19;20014;-66
2023/10/25 09:54:35;;;;;;;15.13;10.98;;;;;;;10.83;100.00;99759.34;7394988;19;20086;-67
2023/10/25 09:57:05;;;;;;;16.85;11.30;;;;;;;10.86;100.00;99752.19;7394831;19;20014;-65
2023/10/25 09:59:34;;;;;;;14.73;10.70;;;;;;;10.91;100.00;99745.00;7394772;19;20492;-67
2023/10/25 10:02:05;;;;;;;18.15;10.60;;;;;;;10.98;100.00;99744.75;7394051;19;20010;-65
2023/10/25 10:04:45;;;;;;;14.30;10.48;;;;;;;11.03;100.00;99742.81;7392779;19;20410;-65
2023/10/25 10:07:25;;;;;;;18.02;10.18;;;;;;;11.10;100.00;99736.41;7392414;19;20015;-65
2023/10/25 10:10:00;;;;;;;12.75;9.10;;;;;;;11.19;100.00;99736.03;7392696;19;20499;-65
2023/10/25 10:12:28;;;;;;;13.95;9.27;;;;;;;11.26;100.00;99723.53;7392684;19;20502;-65
2023/10/25 10:14:57;;;;;;;12.10;9.30;;;;;;;11.33;100.00;99719.72;7394348;19;20011;-66
2023/10/25 10:17:26;;;;;;;11.35;7.88;;;;;;;11.39;100.00;99718.63;7394104;19;20027;-65
2023/10/25 10:19:57;;;;;;;11.07;7.47;;;;;;;11.46;100.00;99719.22;7395325;19;20010;-65
2023/10/25 10:22:26;;;;;;;13.50;7.32;;;;;;;11.49;100.00;99719.09;7392878;19;20019;-65
2023/10/25 10:24:56;;;;;;;10.55;6.82;;;;;;;11.53;100.00;99712.78;7394132;19;20018;-65
2023/10/25 10:27:27;;;;;;;9.05;7.18;;;;;;;11.57;100.00;99709.97;7393710;19;20011;-65
2023/10/25 10:29:56;;;;;;;12.13;6.90;;;;;;;11.62;100.00;99712.38;7393491;19;20011;-65
2023/10/25 10:32:24;;;;;;;13.60;6.47;;;;;;;11.67;100.00;99712.19;7392476;19;20082;-66
2023/10/25 10:34:56;;;;;;;10.30;5.75;;;;;;;11.71;100.00;99708.50;7394107;19;20021;-66
2023/10/25 10:37:29;;;;;;;9.02;7.13;;;;;;;11.79;100.00;99710.81;7393132;19;20399;-65
2023/10/25 10:40:15;;;;;;;11.85;7.38;;;;;;;11.87;100.00;99706.09;7393728;19;20483;-65
2023/10/25 10:42:44;;;;;;;13.00;7.40;;;;;;;11.95;100.00;99703.97;7393926;19;20006;-65
2023/10/25 10:45:16;;;;;;;8.63;6.72;;;;;;;12.02;100.00;99700.19;7393967;19;20014;-65
2023/10/25 10:47:55;;;;;;;16.17;6.68;;;;;;;12.09;100.00;99692.03;7393611;19;20043;-65
2023/10/25 10:50:25;;;;;;;8.70;5.68;;;;;;;12.13;100.00;99688.31;7401393;19;20009;-65
2023/10/25 10:52:57;;;;;;;8.98;5.35;;;;;;;12.19;100.00;99688.88;7401476;19;20033;-65
2023/10/25 10:55:27;;;;;;;10.10;5.35;;;;;;;12.25;100.00;99686.94;7397790;19;20481;-64
2023/10/25 10:57:55;;;;;;;6.75;4.63;;;;;;;12.29;100.00;99689.34;7399118;19;20078;-66
2023/10/25 11:00:25;;;;;;;5.97;3.53;;;;;;;12.34;100.00;99686.50;7398191;19;20091;-65
2023/10/25 11:02:54;;;;;;;3.78;3.20;;;;;;;12.39;100.00;99687.97;7400601;19;20029;-65
2023/10/25 11:05:23;;;;;;;7.75;3.22;;;;;;;12.46;100.00;99685.06;7401509;19;20026;-65
2023/10/25 11:07:53;;;;;;;6.35;3.65;;;;;;;12.54;100.00;99683.78;7398990;19;20018;-64
2023/10/25 11:10:24;;;;;;;6.05;3.20;;;;;;;12.63;100.00;99671.97;7399535;19;20011;-64
2023/10/25 11:12:53;;;;;;;7.95;3.40;;;;;;;12.71;99.25;99671.59;7397542;19;20018;-65
2023/10/25 11:15:25;;;;;;;6.95;3.22;;;;;;;12.81;98.71;99672.88;7399633;19;20010;-66
2023/10/25 11:17:54;;;;;;;5.10;2.90;;;;;;;12.92;98.01;99672.38;7398453;19;20025;-65
2023/10/25 11:20:22;;;;;;;7.03;2.58;;;;;;;13.00;97.23;99669.34;7399701;19;20083;-65
2023/10/25 11:22:51;;;;;;;6.63;3.28;;;;;;;13.09;97.25;99668.91;7399128;19;20454;-65
2023/10/25 11:25:25;;;;;;;9.27;3.60;;;;;;;13.18;96.45;99668.44;7399666;19;20031;-66
2023/10/25 11:27:55;;;;;;;6.90;3.38;;;;;;;13.27;96.54;99656.59;7398444;19;20046;-64